Brea, California
Current Conditions -  °F | °C
As of 6:53 PM on Saturday 20 Dec 2014 (Local Time) from KFUL Reporting Station
Overcast Overcast  
Wind Chill: 61°   Ceiling: 2800
Heat Index: 61°   Visibility: 10mi
Dew Point: 52°   Wind: 0mph
Humidity: 72%   Direction: NA
Pressure: 30.14"   Gusts: NA
Location:  33.92°N, 117.88°W
Report Text: KFUL 210253Z 00000KT 10SM OVC028 16/11 A3014 RMK AO2 SLP205 T01610111 51009
Loading
Personal Weather Stations






























Interactive Weather Map New forecast layout! Learn more

10-Day Weather Forecast

Advertisements
Track Severe Weather on mobile